Aeroporto :







RITROVATECI SU...

 
LOGIN :

Iscrizione | Disclaimer

   EN    FR    IT 

 









Sommario :    VFR   VFR Marginale   IFR   IFR Intensivo   IFR Molto Intensivo
Visibilità : 
Base nubi : 
>= 8 km
>= 3000ft
5 / 8 km
1000 / 3000 ft
1500m / 5 km
500 / 1000 ft
800 / 1500m
200 / 500 ft
< 800m
< 200 ft
Simboli :   Temporali  Nebbia  Neve Forte  Precipitazioni Forti  Vento > 20 kt






- Altitudine del aeroporto : 141 ft
- Codice IATA : YQI


CYQI - Yarmouth

ULTIMO METAR :
  • 062109Z 29011KT 12SM OVC043 01/M03 A2995 RMK SC8 SLP145

METARs OBSOLETI :
  • 062100Z 29010G16KT 10SM -SHSN OVC035 01/M03 A2995 RMK SC8 CVCTV CLD EMBD SLP145
  • 062000Z 29012G18KT 4SM -SHSN OVC025 01/M03 A2995 RMK SC8 CVCTV CLD EMBD SLP144
  • 061941Z 29014KT 6SM -SHSN OVC030 01/M04 A2994 RMK SC8 CVCTV CLD EMBD SLP142
  • 061900Z 29015G23KT 12SM VCSH OVC028 01/M04 A2994 RMK SC8 SLP141

TAF AMD TAF CYQI
Valido dal 06 a 20 ore il 07 a 06 ore UTC


062015Z 0620/0706 29012G22KT 6SM -SN SCT008 OVC025
TEMPO 0620/0623 2SM -SN BKN008 OVC025
FM062300 29010G20KT 2SM -SN BKN007 OVC015
TEMPO 0623/0701 6SM -SN SCT007 OVC015
PROB30 0623/0701 1SM -SN VV010
FM070100 29010KT 1SM -SN VV010
BECMG 0701/0703 34008KT
BECMG 0704/0706 02010KT RMK NXT FCST BY 070000Z



MetMap, La meteo Aeronautica in un colpo d'occhio ! - Copyright ORBIFLY Dicembre 2007 - Disclaimer

ORBIFLY MET'MAP TEAM :

Programmazione e sviluppo : Alexandra Zaïnal
Concezione : Baudouin d'Aumeries
Aiuto per la programmazione : Marc-Olivier Méhu
Supporto tecnico e logistico : Manuel Goepfert
Aiuto per la traduzione : Arnaldo La Scala

Contatto : metmap@orbifly.com




FONTI E CREDITI :

   NOAA